Kakuwamaru — JD4224 — position and weather

sailwx.info

Track history (hours):
 
Tides and Currents Weather Stations Pressure Air Temp Water Temp Dewpoint Dewpoint Depression Visibility Wind Speed Wind Dir Waves Ship Positions

Kakuwamaru

Last reported at 2018-Apr-24 23:00 UTC. Time now 2018-Apr-24 23:05 UTC.
Position N 35°30' E 139°58'.

Length 67 m; draft 4 m.

Type: Tanker. MMSI: 431009761.

Date/timePositionNaut miles runAvg speedWind from/ knotsBaromVisibWave heightAir tempDewpointWater temp
2018-Apr-24 23:00N 35°30' E 139°58'3 5.7
2018-Apr-24 22:30N 35°28' E 139°56'0 0.0
2018-Apr-24 22:00N 35°28' E 139°56'0 0.1
2018-Apr-24 21:30N 35°28' E 139°56'0 0.0
2018-Apr-24 21:00N 35°28' E 139°56'0 0.0
2018-Apr-24 20:30N 35°28' E 139°56'0 0.0
2018-Apr-24 20:00N 35°28' E 139°56'0 0.0
2018-Apr-24 19:30N 35°28' E 139°56'0 0.0
2018-Apr-24 19:00N 35°28' E 139°56'0 0.0
2018-Apr-24 18:30N 35°28' E 139°56'0 0.0
2018-Apr-24 18:00N 35°28' E 139°56'0 0.0
2018-Apr-24 17:30N 35°28' E 139°56'0 0.0
2018-Apr-24 17:00N 35°28' E 139°56'0 0.0
2018-Apr-24 16:30N 35°28' E 139°56'0 0.1
2018-Apr-24 16:00N 35°28' E 139°56'0 0.1
2018-Apr-24 15:30N 35°28' E 139°56'0 0.0
2018-Apr-24 15:01N 35°28' E 139°56'0 0.0
2018-Apr-24 14:30N 35°28' E 139°56'0 0.0
2018-Apr-24 14:00N 35°28' E 139°56'0 0.0
2018-Apr-24 13:30N 35°28' E 139°56'0 0.0
2018-Apr-24 13:00N 35°28' E 139°56'0 0.0
2018-Apr-24 12:29N 35°28' E 139°56'0 0.0
2018-Apr-24 12:00N 35°28' E 139°56'0 0.0
2018-Apr-24 11:20N 35°28' E 139°56'0 0.0
2018-Apr-24 11:00N 35°28' E 139°56'0 0.0
2018-Apr-24 10:30N 35°28' E 139°56'0 0.0
2018-Apr-24 10:00N 35°28' E 139°56'0 0.0
2018-Apr-24 09:30N 35°28' E 139°56'0 0.0
2018-Apr-24 08:59N 35°28' E 139°56'0 0.0
2018-Apr-24 08:30N 35°28' E 139°56'0 0.0
2018-Apr-24 08:00N 35°28' E 139°56'0 0.0
2018-Apr-24 07:30N 35°28' E 139°56'0 0.0
2018-Apr-24 07:00N 35°28' E 139°56'0 0.0
2018-Apr-24 06:30N 35°28' E 139°56'0 0.0
2018-Apr-24 06:00N 35°28' E 139°56'0 0.0
2018-Apr-24 05:30N 35°28' E 139°56'0 0.0
2018-Apr-24 05:01N 35°28' E 139°56'0 0.0
2018-Apr-24 04:30N 35°28' E 139°56'0 0.0
2018-Apr-24 04:00N 35°28' E 139°56'4 7.7
2018-Apr-24 03:28N 35°30' E 139°51'4 8.4
2018-Apr-24 03:00N 35°31' E 139°46'0 0.0
2018-Apr-23 23:07N 35°31' E 139°46'0 0.1
2018-Apr-23 23:00N 35°31' E 139°46'3 5.6
2018-Apr-23 22:30N 35°29' E 139°49'0 0.0
2018-Apr-23 21:59N 35°29' E 139°49'2 4.7
2018-Apr-23 21:30N 35°27' E 139°48'611.6
2018-Apr-23 21:00N 35°22' E 139°45'5 9.4
2018-Apr-23 20:30N 35°17' E 139°45'5 9.1
2018-Apr-23 20:00N 35°13' E 139°47'612.0
2018-Apr-23 19:30N 35°07' E 139°45'612.0
2018-Apr-23 19:00N 35°02' E 139°40'712.6
2018-Apr-23 18:25N 34°58' E 139°33'714.0
2018-Apr-23 17:57N 34°54' E 139°26'613.7
2018-Apr-23 17:28N 34°50' E 139°20'714.0
2018-Apr-23 17:00N 34°46' E 139°14'713.9
2018-Apr-23 16:30N 34°42' E 139°07'712.6
2018-Apr-23 15:56N 34°37' E 139°01'512.2
2018-Apr-23 15:30N 34°35' E 138°55'612.3
2018-Apr-23 14:59N 34°34' E 138°47'611.8
2018-Apr-23 14:29N 34°33' E 138°40'611.7
2018-Apr-23 14:00N 34°33' E 138°33'711.7
2018-Apr-23 13:26N 34°32' E 138°25'511.8
2018-Apr-23 13:00N 34°31' E 138°19'16611.2
2018-Apr-22 22:10N 33°45' E 135°07'212.5
2018-Apr-22 21:58N 33°47' E 135°05'613.0
2018-Apr-22 21:29N 33°52' E 135°00'712.9
2018-Apr-22 20:59N 33°58' E 134°60'612.5
2018-Apr-22 20:31N 34°04' E 134°59'612.3
2018-Apr-22 20:00N 34°10' E 134°59'612.1
2018-Apr-22 19:30N 34°16' E 134°59'611.4
2018-Apr-22 19:00N 34°22' E 134°58'611.9
2018-Apr-22 18:30N 34°27' E 135°01'612.2
2018-Apr-22 18:01N 34°33' E 135°02'4 8.4
2018-Apr-22 17:31N 34°37' E 135°00'510.9
2018-Apr-22 17:01N 34°35' E 134°54'510.0
2018-Apr-22 16:31N 34°33' E 134°49'611.1
2018-Apr-22 16:00N 34°31' E 134°43'611.9
2018-Apr-22 15:30N 34°29' E 134°36'612.6
2018-Apr-22 15:01N 34°26' E 134°29'712.0
2018-Apr-22 14:28N 34°24' E 134°21'611.8
2018-Apr-22 14:00N 34°23' E 134°15'7911.2
2018-Apr-22 06:55N 34°06' E 132°42'512.4
2018-Apr-22 06:30N 34°04' E 132°36'811.5
2018-Apr-22 05:50N 34°05' E 132°27'512.4
2018-Apr-22 05:26N 34°08' E 132°22'511.9
2018-Apr-22 05:00N 34°11' E 132°17'2 4.5
2018-Apr-22 04:28N 34°12' E 132°15'0 0.0
2018-Apr-22 03:58N 34°12' E 132°15'0 0.0
2018-Apr-22 03:25N 34°12' E 132°15'0 0.0
2018-Apr-22 02:58N 34°12' E 132°15'0 0.0
2018-Apr-22 02:25N 34°12' E 132°15'0 0.0
2018-Apr-22 01:49N 34°12' E 132°15'0 0.0
2018-Apr-22 00:40N 34°12' E 132°15'0 0.0
2018-Apr-21 23:37N 34°12' E 132°15'0 0.0
2018-Apr-21 23:25N 34°12' E 132°15'0 0.1
2018-Apr-21 22:58N 34°12' E 132°15'2 5.3
2018-Apr-21 22:30N 34°11' E 132°17'0 0.1
2018-Apr-21 21:55N 34°11' E 132°17'0 0.0
2018-Apr-21 21:22N 34°11' E 132°17'0 0.0
2018-Apr-21 20:58N 34°11' E 132°17'0 0.0
2018-Apr-21 20:28N 34°11' E 132°17'0 0.0
2018-Apr-21 19:58N 34°11' E 132°17'0 0.0
2018-Apr-21 19:25N 34°11' E 132°17'0 0.0
2018-Apr-21 18:58N 34°11' E 132°17'2 3.5
2018-Apr-21 18:29N 34°09' E 132°18'612.7
2018-Apr-21 18:00N 34°05' E 132°24'711.9
2018-Apr-21 17:26N 34°02' E 132°31'512.3
2018-Apr-21 16:59N 34°04' E 132°37'6211.1
2018-Apr-21 11:26N 34°22' E 133°48'613.0
2018-Apr-21 11:00N 34°24' E 133°54'612.7
2018-Apr-21 10:30N 34°26' E 134°02'911.6
2018-Apr-21 09:45N 34°25' E 134°12'311.7
2018-Apr-21 09:31N 34°25' E 134°16'612.1
2018-Apr-21 09:00N 34°26' E 134°23'612.3
2018-Apr-21 08:29N 34°28' E 134°30'612.1
2018-Apr-21 08:01N 34°30' E 134°36'612.0
2018-Apr-21 07:30N 34°33' E 134°43'612.1
2018-Apr-21 07:01N 34°35' E 134°50'611.3
2018-Apr-21 06:30N 34°37' E 134°57'510.8
2018-Apr-21 06:01N 34°36' E 135°03'611.2
2018-Apr-21 05:30N 34°36' E 135°10'612.4
2018-Apr-21 05:00N 34°36' E 135°17'611.7
2018-Apr-21 04:31N 34°36' E 135°24'2 3.8
2018-Apr-21 03:59N 34°34' E 135°26'0 0.0
2018-Apr-21 03:26N 34°34' E 135°26'0 0.0
2018-Apr-21 02:59N 34°34' E 135°26'0 0.0
2018-Apr-21 02:29N 34°34' E 135°26'0 0.0
2018-Apr-21 01:56N 34°34' E 135°26'0 0.0
2018-Apr-21 01:29N 34°34' E 135°26'0 0.0
2018-Apr-21 01:00N 34°34' E 135°26'3 6.0
2018-Apr-21 00:30N 34°36' E 135°23'510.7
2018-Apr-21 00:00N 34°33' E 135°18'612.3
2018-Apr-20 23:30N 34°29' E 135°13'612.0
2018-Apr-20 23:00N 34°25' E 135°08'611.9
2018-Apr-20 22:30N 34°20' E 135°02'510.5
2018-Apr-20 22:00N 34°16' E 134°59'611.1
2018-Apr-20 21:30N 34°10' E 134°60'612.4
2018-Apr-20 21:00N 34°04' E 135°00'612.2
2018-Apr-20 20:30N 33°58' E 135°01'611.6
2018-Apr-20 20:00N 33°52' E 135°02'811.9
2018-Apr-20 19:19N 33°46' E 135°09'104 9.9
2018-Apr-20 08:48N 34°32' E 137°01'1011.2
2018-Apr-20 07:52N 34°39' E 136°52'412.1
2018-Apr-20 07:30N 34°42' E 136°48'612.3
2018-Apr-20 07:00N 34°48' E 136°45'612.4
2018-Apr-20 06:30N 34°54' E 136°43'510.1
2018-Apr-20 06:00N 34°58' E 136°40'1 1.3
2018-Apr-20 05:30N 34°58' E 136°39'0 0.0
2018-Apr-20 04:56N 34°58' E 136°39'0 0.0
2018-Apr-20 04:20N 34°58' E 136°39'0 0.0
2018-Apr-20 03:44N 34°58' E 136°39'0 0.0
2018-Apr-20 03:20N 34°58' E 136°39'0 0.0
2018-Apr-20 01:56N 34°58' E 136°39'3 6.4
2018-Apr-20 01:30N 34°56' E 136°41'612.6
2018-Apr-20 01:01N 34°50' E 136°44'612.4
2018-Apr-20 00:31N 34°45' E 136°48'612.2
2018-Apr-20 00:00N 34°40' E 136°52'712.5
2018-Apr-19 23:25N 34°35' E 136°59'812.2
2018-Apr-19 22:45N 34°31' E 137°08'412.4
2018-Apr-19 22:28N 34°30' E 137°12'6812.2
2018-Apr-19 16:56N 34°35' E 138°34'612.5
2018-Apr-19 16:26N 34°35' E 138°41'612.3
2018-Apr-19 15:57N 34°35' E 138°49'512.3
2018-Apr-19 15:30N 34°36' E 138°55'811.5
2018-Apr-19 14:50N 34°40' E 139°02'712.0
2018-Apr-19 14:17N 34°45' E 139°08'411.7
2018-Apr-19 13:58N 34°48' E 139°11'712.1
2018-Apr-19 13:21N 34°54' E 139°16'512.3
2018-Apr-19 12:57N 34°58' E 139°20'511.8
2018-Apr-19 12:29N 35°01' E 139°26'611.7
2018-Apr-19 12:00N 35°03' E 139°32'612.4
2018-Apr-19 11:31N 35°06' E 139°39'611.5
2018-Apr-19 11:00N 35°10' E 139°44'611.5
2018-Apr-19 10:30N 35°15' E 139°46'612.1
2018-Apr-19 10:00N 35°21' E 139°43'611.0
2018-Apr-19 09:30N 35°26' E 139°45'611.7
2018-Apr-19 09:00N 35°29' E 139°51'611.7
2018-Apr-19 08:30N 35°32' E 139°57'611.0
2018-Apr-19 08:00N 35°33' E 140°04'1 2.8
2018-Apr-19 07:30N 35°33' E 140°05'0 0.0
2018-Apr-19 07:00N 35°33' E 140°05'0 0.0
2018-Apr-19 06:31N 35°33' E 140°05'0 0.0
2018-Apr-19 06:00N 35°33' E 140°05'0 0.0
2018-Apr-19 05:27N 35°33' E 140°05'0 0.0
2018-Apr-19 05:00N 35°33' E 140°05'0 0.0
2018-Apr-19 04:31N 35°33' E 140°05'0 0.0
2018-Apr-19 04:00N 35°33' E 140°05'4 7.1
2018-Apr-19 03:30N 35°32' E 140°01'612.1
2018-Apr-19 03:00N 35°29' E 139°54'612.0
2018-Apr-19 02:30N 35°26' E 139°48'611.8
2018-Apr-19 02:01N 35°21' E 139°45'510.5
2018-Apr-19 01:31N 35°16' E 139°46'510.9
2018-Apr-19 01:00N 35°10' E 139°46'612.1
2018-Apr-19 00:30N 35°05' E 139°43'612.5
2018-Apr-19 00:00N 35°01' E 139°37'713.2
2018-Apr-18 23:30N 34°57' E 139°31'1313.4
2018-Apr-18 22:33N 34°49' E 139°18'113.6
2018-Apr-18 22:30N 34°49' E 139°18'1112.9
2018-Apr-18 21:41N 34°42' E 139°08'211.7
2018-Apr-18 21:29N 34°41' E 139°05'611.5
2018-Apr-18 20:58N 34°37' E 138°60'611.1
2018-Apr-18 20:26N 34°35' E 138°53'511.9
2018-Apr-18 19:59N 34°34' E 138°47'812.3
2018-Apr-18 19:22N 34°33' E 138°37'512.2
2018-Apr-18 18:56N 34°33' E 138°31'612.3
2018-Apr-18 18:27N 34°32' E 138°24'611.9
2018-Apr-18 17:58N 34°32' E 138°17'5112.3
2018-Apr-18 13:50N 34°32' E 137°15'1912.3
2018-Apr-18 12:15N 34°38' E 136°53'313.0
2018-Apr-18 12:00N 34°40' E 136°50'713.0
2018-Apr-18 11:30N 34°46' E 136°46'612.9
2018-Apr-18 11:00N 34°52' E 136°44'611.8
2018-Apr-18 10:30N 34°58' E 136°41'2 3.7
2018-Apr-18 09:59N 34°58' E 136°39'0 0.0
2018-Apr-18 09:29N 34°58' E 136°39'0 0.0
2018-Apr-18 09:00N 34°58' E 136°39'0 0.0
2018-Apr-18 08:27N 34°58' E 136°39'0 0.0
2018-Apr-18 07:57N 34°58' E 136°39'0 0.0
2018-Apr-18 07:27N 34°58' E 136°39'0 0.0
2018-Apr-18 07:00N 34°58' E 136°39'0 0.0
2018-Apr-18 06:27N 34°58' E 136°39'0 1.0
2018-Apr-18 05:59N 34°58' E 136°39'0 0.1
2018-Apr-18 05:29N 34°58' E 136°39'3 5.5
2018-Apr-18 05:00N 34°55' E 136°41'612.3
2018-Apr-18 04:30N 34°49' E 136°40'612.2
2018-Apr-18 04:00N 34°43' E 136°37'611.7
2018-Apr-18 03:30N 34°38' E 136°34'1 0.0
2018-Apr-16 09:25N 34°37' E 136°33'2 5.1
2018-Apr-16 09:00N 34°39' E 136°35'612.8
2018-Apr-16 08:31N 34°45' E 136°37'612.6
2018-Apr-16 08:00N 34°51' E 136°39'612.3
2018-Apr-16 07:30N 34°57' E 136°41'2 0.6
2018-Apr-16 04:14N 34°58' E 136°39'0 0.0
2018-Apr-16 03:53N 34°58' E 136°39'0 0.0
2018-Apr-16 03:29N 34°58' E 136°39'2 3.1
2018-Apr-16 02:59N 34°57' E 136°41'0 0.0
2018-Apr-16 02:29N 34°57' E 136°41'0 0.0
2018-Apr-16 01:59N 34°57' E 136°41'0 0.1
2018-Apr-16 01:29N 34°57' E 136°41'0 0.0
2018-Apr-16 00:59N 34°57' E 136°41'0 0.0
2018-Apr-16 00:29N 34°57' E 136°41'0 0.0
2018-Apr-15 23:59N 34°57' E 136°41'0 0.0
2018-Apr-15 23:23N 34°57' E 136°41'0 0.0
2018-Apr-15 22:59N 34°57' E 136°41'0 0.0
2018-Apr-15 22:29N 34°57' E 136°41'0 0.1
2018-Apr-15 21:59N 34°57' E 136°41'0 0.1
2018-Apr-15 21:30N 34°57' E 136°41'611.3
2018-Apr-15 21:01N 34°52' E 136°44'611.2
2018-Apr-15 20:31N 34°47' E 136°47'611.6
2018-Apr-15 20:00N 34°42' E 136°50'103 8.1
2018-Apr-15 07:16N 33°48' E 135°04'312.2
2018-Apr-15 07:00N 33°51' E 135°01'611.6
2018-Apr-15 06:30N 33°56' E 134°59'612.1
2018-Apr-15 06:00N 34°03' E 134°59'612.5
2018-Apr-15 05:30N 34°09' E 134°59'714.0
2018-Apr-15 05:01N 34°16' E 134°58'713.4
2018-Apr-15 04:30N 34°22' E 135°01'713.4
2018-Apr-15 04:00N 34°25' E 135°08'612.7
2018-Apr-15 03:30N 34°29' E 135°15'612.2
2018-Apr-15 03:00N 34°32' E 135°21'3 5.5
2018-Apr-15 02:30N 34°32' E 135°25'0 0.0
2018-Apr-15 02:00N 34°32' E 135°25'0 0.0
2018-Apr-15 01:30N 34°32' E 135°25'0 0.0
2018-Apr-15 01:00N 34°32' E 135°25'0 0.0
2018-Apr-15 00:30N 34°32' E 135°25'0 0.0
2018-Apr-15 00:00N 34°32' E 135°25'0 0.0
2018-Apr-14 23:30N 34°32' E 135°25'  
Track history (hours):
 
Tides and Currents Weather Stations Pressure Air Temp Water Temp Dewpoint Dewpoint Depression Visibility Wind Speed Wind Dir Waves Ship Positions

Kakuwamaru

Last reported at 2018-Apr-24 23:00 UTC. Time now 2018-Apr-24 23:05 UTC.
Position N 35°30' E 139°58'.

Length 67 m; draft 4 m.

Type: Tanker. MMSI: 431009761.

Date/timePositionNaut miles runAvg speedWind from/ knotsBaromVisibWave heightAir tempDewpointWater temp
2018-Apr-24 23:00N 35°30' E 139°58'3 5.7
2018-Apr-24 22:30N 35°28' E 139°56'0 0.0
2018-Apr-24 22:00N 35°28' E 139°56'0 0.1
2018-Apr-24 21:30N 35°28' E 139°56'0 0.0
2018-Apr-24 21:00N 35°28' E 139°56'0 0.0
2018-Apr-24 20:30N 35°28' E 139°56'0 0.0
2018-Apr-24 20:00N 35°28' E 139°56'0 0.0
2018-Apr-24 19:30N 35°28' E 139°56'0 0.0
2018-Apr-24 19:00N 35°28' E 139°56'0 0.0
2018-Apr-24 18:30N 35°28' E 139°56'0 0.0
2018-Apr-24 18:00N 35°28' E 139°56'0 0.0
2018-Apr-24 17:30N 35°28' E 139°56'0 0.0
2018-Apr-24 17:00N 35°28' E 139°56'0 0.0
2018-Apr-24 16:30N 35°28' E 139°56'0 0.1
2018-Apr-24 16:00N 35°28' E 139°56'0 0.1
2018-Apr-24 15:30N 35°28' E 139°56'0 0.0
2018-Apr-24 15:01N 35°28' E 139°56'0 0.0
2018-Apr-24 14:30N 35°28' E 139°56'0 0.0
2018-Apr-24 14:00N 35°28' E 139°56'0 0.0
2018-Apr-24 13:30N 35°28' E 139°56'0 0.0
2018-Apr-24 13:00N 35°28' E 139°56'0 0.0
2018-Apr-24 12:29N 35°28' E 139°56'0 0.0
2018-Apr-24 12:00N 35°28' E 139°56'0 0.0
2018-Apr-24 11:20N 35°28' E 139°56'0 0.0
2018-Apr-24 11:00N 35°28' E 139°56'0 0.0
2018-Apr-24 10:30N 35°28' E 139°56'0 0.0
2018-Apr-24 10:00N 35°28' E 139°56'0 0.0
2018-Apr-24 09:30N 35°28' E 139°56'0 0.0
2018-Apr-24 08:59N 35°28' E 139°56'0 0.0
2018-Apr-24 08:30N 35°28' E 139°56'0 0.0
2018-Apr-24 08:00N 35°28' E 139°56'0 0.0
2018-Apr-24 07:30N 35°28' E 139°56'0 0.0
2018-Apr-24 07:00N 35°28' E 139°56'0 0.0
2018-Apr-24 06:30N 35°28' E 139°56'0 0.0
2018-Apr-24 06:00N 35°28' E 139°56'0 0.0
2018-Apr-24 05:30N 35°28' E 139°56'0 0.0
2018-Apr-24 05:01N 35°28' E 139°56'0 0.0
2018-Apr-24 04:30N 35°28' E 139°56'0 0.0
2018-Apr-24 04:00N 35°28' E 139°56'4 7.7
2018-Apr-24 03:28N 35°30' E 139°51'4 8.4
2018-Apr-24 03:00N 35°31' E 139°46'0 0.0
2018-Apr-23 23:07N 35°31' E 139°46'0 0.1
2018-Apr-23 23:00N 35°31' E 139°46'3 5.6
2018-Apr-23 22:30N 35°29' E 139°49'0 0.0
2018-Apr-23 21:59N 35°29' E 139°49'2 4.7
2018-Apr-23 21:30N 35°27' E 139°48'611.6
2018-Apr-23 21:00N 35°22' E 139°45'5 9.4
2018-Apr-23 20:30N 35°17' E 139°45'5 9.1
2018-Apr-23 20:00N 35°13' E 139°47'612.0
2018-Apr-23 19:30N 35°07' E 139°45'612.0
2018-Apr-23 19:00N 35°02' E 139°40'712.6
2018-Apr-23 18:25N 34°58' E 139°33'714.0
2018-Apr-23 17:57N 34°54' E 139°26'613.7
2018-Apr-23 17:28N 34°50' E 139°20'714.0
2018-Apr-23 17:00N 34°46' E 139°14'713.9
2018-Apr-23 16:30N 34°42' E 139°07'712.6
2018-Apr-23 15:56N 34°37' E 139°01'512.2
2018-Apr-23 15:30N 34°35' E 138°55'612.3
2018-Apr-23 14:59N 34°34' E 138°47'611.8
2018-Apr-23 14:29N 34°33' E 138°40'611.7
2018-Apr-23 14:00N 34°33' E 138°33'711.7
2018-Apr-23 13:26N 34°32' E 138°25'511.8
2018-Apr-23 13:00N 34°31' E 138°19'16611.2
2018-Apr-22 22:10N 33°45' E 135°07'212.5
2018-Apr-22 21:58N 33°47' E 135°05'613.0
2018-Apr-22 21:29N 33°52' E 135°00'712.9
2018-Apr-22 20:59N 33°58' E 134°60'612.5
2018-Apr-22 20:31N 34°04' E 134°59'612.3
2018-Apr-22 20:00N 34°10' E 134°59'612.1
2018-Apr-22 19:30N 34°16' E 134°59'611.4
2018-Apr-22 19:00N 34°22' E 134°58'611.9
2018-Apr-22 18:30N 34°27' E 135°01'612.2
2018-Apr-22 18:01N 34°33' E 135°02'4 8.4
2018-Apr-22 17:31N 34°37' E 135°00'510.9
2018-Apr-22 17:01N 34°35' E 134°54'510.0
2018-Apr-22 16:31N 34°33' E 134°49'611.1
2018-Apr-22 16:00N 34°31' E 134°43'611.9
2018-Apr-22 15:30N 34°29' E 134°36'612.6
2018-Apr-22 15:01N 34°26' E 134°29'712.0
2018-Apr-22 14:28N 34°24' E 134°21'611.8
2018-Apr-22 14:00N 34°23' E 134°15'7911.2
2018-Apr-22 06:55N 34°06' E 132°42'512.4
2018-Apr-22 06:30N 34°04' E 132°36'811.5
2018-Apr-22 05:50N 34°05' E 132°27'512.4
2018-Apr-22 05:26N 34°08' E 132°22'511.9
2018-Apr-22 05:00N 34°11' E 132°17'2 4.5
2018-Apr-22 04:28N 34°12' E 132°15'0 0.0
2018-Apr-22 03:58N 34°12' E 132°15'0 0.0
2018-Apr-22 03:25N 34°12' E 132°15'0 0.0
2018-Apr-22 02:58N 34°12' E 132°15'0 0.0
2018-Apr-22 02:25N 34°12' E 132°15'0 0.0
2018-Apr-22 01:49N 34°12' E 132°15'0 0.0
2018-Apr-22 00:40N 34°12' E 132°15'0 0.0
2018-Apr-21 23:37N 34°12' E 132°15'0 0.0
2018-Apr-21 23:25N 34°12' E 132°15'0 0.1
2018-Apr-21 22:58N 34°12' E 132°15'2 5.3
2018-Apr-21 22:30N 34°11' E 132°17'0 0.1
2018-Apr-21 21:55N 34°11' E 132°17'0 0.0
2018-Apr-21 21:22N 34°11' E 132°17'0 0.0
2018-Apr-21 20:58N 34°11' E 132°17'0 0.0
2018-Apr-21 20:28N 34°11' E 132°17'0 0.0
2018-Apr-21 19:58N 34°11' E 132°17'0 0.0
2018-Apr-21 19:25N 34°11' E 132°17'0 0.0
2018-Apr-21 18:58N 34°11' E 132°17'2 3.5
2018-Apr-21 18:29N 34°09' E 132°18'612.7
2018-Apr-21 18:00N 34°05' E 132°24'711.9
2018-Apr-21 17:26N 34°02' E 132°31'512.3
2018-Apr-21 16:59N 34°04' E 132°37'6211.1
2018-Apr-21 11:26N 34°22' E 133°48'613.0
2018-Apr-21 11:00N 34°24' E 133°54'612.7
2018-Apr-21 10:30N 34°26' E 134°02'911.6
2018-Apr-21 09:45N 34°25' E 134°12'311.7
2018-Apr-21 09:31N 34°25' E 134°16'612.1
2018-Apr-21 09:00N 34°26' E 134°23'612.3
2018-Apr-21 08:29N 34°28' E 134°30'612.1
2018-Apr-21 08:01N 34°30' E 134°36'612.0
2018-Apr-21 07:30N 34°33' E 134°43'612.1
2018-Apr-21 07:01N 34°35' E 134°50'611.3
2018-Apr-21 06:30N 34°37' E 134°57'510.8
2018-Apr-21 06:01N 34°36' E 135°03'611.2
2018-Apr-21 05:30N 34°36' E 135°10'612.4
2018-Apr-21 05:00N 34°36' E 135°17'611.7
2018-Apr-21 04:31N 34°36' E 135°24'2 3.8
2018-Apr-21 03:59N 34°34' E 135°26'0 0.0
2018-Apr-21 03:26N 34°34' E 135°26'0 0.0
2018-Apr-21 02:59N 34°34' E 135°26'0 0.0
2018-Apr-21 02:29N 34°34' E 135°26'0 0.0
2018-Apr-21 01:56N 34°34' E 135°26'0 0.0
2018-Apr-21 01:29N 34°34' E 135°26'0 0.0
2018-Apr-21 01:00N 34°34' E 135°26'3 6.0
2018-Apr-21 00:30N 34°36' E 135°23'510.7
2018-Apr-21 00:00N 34°33' E 135°18'612.3
2018-Apr-20 23:30N 34°29' E 135°13'612.0
2018-Apr-20 23:00N 34°25' E 135°08'611.9
2018-Apr-20 22:30N 34°20' E 135°02'510.5
2018-Apr-20 22:00N 34°16' E 134°59'611.1
2018-Apr-20 21:30N 34°10' E 134°60'612.4
2018-Apr-20 21:00N 34°04' E 135°00'612.2
2018-Apr-20 20:30N 33°58' E 135°01'611.6
2018-Apr-20 20:00N 33°52' E 135°02'811.9
2018-Apr-20 19:19N 33°46' E 135°09'104 9.9
2018-Apr-20 08:48N 34°32' E 137°01'1011.2
2018-Apr-20 07:52N 34°39' E 136°52'412.1
2018-Apr-20 07:30N 34°42' E 136°48'612.3
2018-Apr-20 07:00N 34°48' E 136°45'612.4
2018-Apr-20 06:30N 34°54' E 136°43'510.1
2018-Apr-20 06:00N 34°58' E 136°40'1 1.3
2018-Apr-20 05:30N 34°58' E 136°39'0 0.0
2018-Apr-20 04:56N 34°58' E 136°39'0 0.0
2018-Apr-20 04:20N 34°58' E 136°39'0 0.0
2018-Apr-20 03:44N 34°58' E 136°39'0 0.0
2018-Apr-20 03:20N 34°58' E 136°39'0 0.0
2018-Apr-20 01:56N 34°58' E 136°39'3 6.4
2018-Apr-20 01:30N 34°56' E 136°41'612.6
2018-Apr-20 01:01N 34°50' E 136°44'612.4
2018-Apr-20 00:31N 34°45' E 136°48'612.2
2018-Apr-20 00:00N 34°40' E 136°52'712.5
2018-Apr-19 23:25N 34°35' E 136°59'812.2
2018-Apr-19 22:45N 34°31' E 137°08'412.4
2018-Apr-19 22:28N 34°30' E 137°12'6812.2
2018-Apr-19 16:56N 34°35' E 138°34'612.5
2018-Apr-19 16:26N 34°35' E 138°41'612.3
2018-Apr-19 15:57N 34°35' E 138°49'512.3
2018-Apr-19 15:30N 34°36' E 138°55'811.5
2018-Apr-19 14:50N 34°40' E 139°02'712.0
2018-Apr-19 14:17N 34°45' E 139°08'411.7
2018-Apr-19 13:58N 34°48' E 139°11'712.1
2018-Apr-19 13:21N 34°54' E 139°16'512.3
2018-Apr-19 12:57N 34°58' E 139°20'511.8
2018-Apr-19 12:29N 35°01' E 139°26'611.7
2018-Apr-19 12:00N 35°03' E 139°32'612.4
2018-Apr-19 11:31N 35°06' E 139°39'611.5
2018-Apr-19 11:00N 35°10' E 139°44'611.5
2018-Apr-19 10:30N 35°15' E 139°46'612.1
2018-Apr-19 10:00N 35°21' E 139°43'611.0
2018-Apr-19 09:30N 35°26' E 139°45'611.7
2018-Apr-19 09:00N 35°29' E 139°51'611.7
2018-Apr-19 08:30N 35°32' E 139°57'611.0
2018-Apr-19 08:00N 35°33' E 140°04'1 2.8
2018-Apr-19 07:30N 35°33' E 140°05'0 0.0
2018-Apr-19 07:00N 35°33' E 140°05'0 0.0
2018-Apr-19 06:31N 35°33' E 140°05'0 0.0
2018-Apr-19 06:00N 35°33' E 140°05'0 0.0
2018-Apr-19 05:27N 35°33' E 140°05'0 0.0
2018-Apr-19 05:00N 35°33' E 140°05'0 0.0
2018-Apr-19 04:31N 35°33' E 140°05'0 0.0
2018-Apr-19 04:00N 35°33' E 140°05'4 7.1
2018-Apr-19 03:30N 35°32' E 140°01'612.1
2018-Apr-19 03:00N 35°29' E 139°54'612.0
2018-Apr-19 02:30N 35°26' E 139°48'611.8
2018-Apr-19 02:01N 35°21' E 139°45'510.5
2018-Apr-19 01:31N 35°16' E 139°46'510.9
2018-Apr-19 01:00N 35°10' E 139°46'612.1
2018-Apr-19 00:30N 35°05' E 139°43'612.5
2018-Apr-19 00:00N 35°01' E 139°37'713.2
2018-Apr-18 23:30N 34°57' E 139°31'1313.4
2018-Apr-18 22:33N 34°49' E 139°18'113.6
2018-Apr-18 22:30N 34°49' E 139°18'1112.9
2018-Apr-18 21:41N 34°42' E 139°08'211.7
2018-Apr-18 21:29N 34°41' E 139°05'611.5
2018-Apr-18 20:58N 34°37' E 138°60'611.1
2018-Apr-18 20:26N 34°35' E 138°53'511.9
2018-Apr-18 19:59N 34°34' E 138°47'812.3
2018-Apr-18 19:22N 34°33' E 138°37'512.2
2018-Apr-18 18:56N 34°33' E 138°31'612.3
2018-Apr-18 18:27N 34°32' E 138°24'611.9
2018-Apr-18 17:58N 34°32' E 138°17'5112.3
2018-Apr-18 13:50N 34°32' E 137°15'1912.3
2018-Apr-18 12:15N 34°38' E 136°53'313.0
2018-Apr-18 12:00N 34°40' E 136°50'713.0
2018-Apr-18 11:30N 34°46' E 136°46'612.9
2018-Apr-18 11:00N 34°52' E 136°44'611.8
2018-Apr-18 10:30N 34°58' E 136°41'2 3.7
2018-Apr-18 09:59N 34°58' E 136°39'0 0.0
2018-Apr-18 09:29N 34°58' E 136°39'0 0.0
2018-Apr-18 09:00N 34°58' E 136°39'0 0.0
2018-Apr-18 08:27N 34°58' E 136°39'0 0.0
2018-Apr-18 07:57N 34°58' E 136°39'0 0.0
2018-Apr-18 07:27N 34°58' E 136°39'0 0.0
2018-Apr-18 07:00N 34°58' E 136°39'0 0.0
2018-Apr-18 06:27N 34°58' E 136°39'0 1.0
2018-Apr-18 05:59N 34°58' E 136°39'0 0.1
2018-Apr-18 05:29N 34°58' E 136°39'3 5.5
2018-Apr-18 05:00N 34°55' E 136°41'612.3
2018-Apr-18 04:30N 34°49' E 136°40'612.2
2018-Apr-18 04:00N 34°43' E 136°37'611.7
2018-Apr-18 03:30N 34°38' E 136°34'1 0.0
2018-Apr-16 09:25N 34°37' E 136°33'2 5.1
2018-Apr-16 09:00N 34°39' E 136°35'612.8
2018-Apr-16 08:31N 34°45' E 136°37'612.6
2018-Apr-16 08:00N 34°51' E 136°39'612.3
2018-Apr-16 07:30N 34°57' E 136°41'2 0.6
2018-Apr-16 04:14N 34°58' E 136°39'0 0.0
2018-Apr-16 03:53N 34°58' E 136°39'0 0.0
2018-Apr-16 03:29N 34°58' E 136°39'2 3.1
2018-Apr-16 02:59N 34°57' E 136°41'0 0.0
2018-Apr-16 02:29N 34°57' E 136°41'0 0.0
2018-Apr-16 01:59N 34°57' E 136°41'0 0.1
2018-Apr-16 01:29N 34°57' E 136°41'0 0.0
2018-Apr-16 00:59N 34°57' E 136°41'0 0.0
2018-Apr-16 00:29N 34°57' E 136°41'0 0.0
2018-Apr-15 23:59N 34°57' E 136°41'0 0.0
2018-Apr-15 23:23N 34°57' E 136°41'0 0.0
2018-Apr-15 22:59N 34°57' E 136°41'0 0.0
2018-Apr-15 22:29N 34°57' E 136°41'0 0.1
2018-Apr-15 21:59N 34°57' E 136°41'0 0.1
2018-Apr-15 21:30N 34°57' E 136°41'611.3
2018-Apr-15 21:01N 34°52' E 136°44'611.2
2018-Apr-15 20:31N 34°47' E 136°47'611.6
2018-Apr-15 20:00N 34°42' E 136°50'103 8.1
2018-Apr-15 07:16N 33°48' E 135°04'312.2
2018-Apr-15 07:00N 33°51' E 135°01'611.6
2018-Apr-15 06:30N 33°56' E 134°59'612.1
2018-Apr-15 06:00N 34°03' E 134°59'612.5
2018-Apr-15 05:30N 34°09' E 134°59'714.0
2018-Apr-15 05:01N 34°16' E 134°58'713.4
2018-Apr-15 04:30N 34°22' E 135°01'713.4
2018-Apr-15 04:00N 34°25' E 135°08'612.7
2018-Apr-15 03:30N 34°29' E 135°15'612.2
2018-Apr-15 03:00N 34°32' E 135°21'3 5.5
2018-Apr-15 02:30N 34°32' E 135°25'0 0.0
2018-Apr-15 02:00N 34°32' E 135°25'0 0.0
2018-Apr-15 01:30N 34°32' E 135°25'0 0.0
2018-Apr-15 01:00N 34°32' E 135°25'0 0.0
2018-Apr-15 00:30N 34°32' E 135°25'0 0.0
2018-Apr-15 00:00N 34°32' E 135°25'0 0.0
2018-Apr-14 23:30N 34°32' E 135°25'  

Dump ship's entire track history